createdAt,value
2019-01-25T00:00:32.378Z,-2.00
2019-01-25T00:03:02.237Z,-2.10
2019-01-25T00:05:30.950Z,-2.10
2019-01-25T00:07:59.336Z,-2.10
2019-01-25T00:10:27.771Z,-2.10
2019-01-25T00:12:56.225Z,-2.00
2019-01-25T00:15:25.015Z,-1.90
2019-01-25T00:17:53.461Z,-1.80
2019-01-25T00:20:21.891Z,-1.70
2019-01-25T00:22:50.325Z,-1.60
2019-01-25T00:25:19.102Z,-1.50
2019-01-25T00:27:47.541Z,-1.50
2019-01-25T00:30:18.224Z,-1.50
2019-01-25T00:32:46.696Z,-1.50
2019-01-25T00:35:15.090Z,-1.40
2019-01-25T00:37:43.550Z,-1.50
2019-01-25T00:40:17.638Z,-1.50
2019-01-25T00:42:46.089Z,-1.50
2019-01-25T00:45:14.513Z,-1.50
2019-01-25T00:47:42.982Z,-1.40
2019-01-25T00:50:17.185Z,-1.40
2019-01-25T00:52:45.621Z,-1.40
2019-01-25T00:55:14.088Z,-1.30
2019-01-25T00:57:42.528Z,-1.30
2019-01-25T01:00:23.258Z,-1.30
2019-01-25T01:02:51.659Z,-1.30
2019-01-25T01:05:20.592Z,-1.40
2019-01-25T01:07:50.920Z,-1.50
2019-01-25T01:10:19.557Z,-1.50
2019-01-25T01:12:48.016Z,-1.60
2019-01-25T01:15:16.447Z,-1.60
2019-01-25T01:17:45.279Z,-1.60
2019-01-25T01:20:16.053Z,-1.60
2019-01-25T01:22:44.478Z,-1.50
2019-01-25T01:25:13.564Z,-1.50
2019-01-25T01:27:41.956Z,-1.40
2019-01-25T01:30:13.622Z,-1.30
2019-01-25T01:32:42.051Z,-1.20
2019-01-25T01:35:10.495Z,-1.10
2019-01-25T01:37:38.944Z,-1.00
2019-01-25T01:40:21.707Z,-0.90
2019-01-25T01:42:46.128Z,-0.90
2019-01-25T01:45:14.561Z,-0.80
2019-01-25T01:47:42.951Z,-0.80
2019-01-25T01:50:13.878Z,-0.80
2019-01-25T01:52:42.737Z,-0.80
2019-01-25T01:55:11.282Z,-0.70
2019-01-25T01:57:39.718Z,-0.70
2019-01-25T02:00:13.950Z,-0.70
2019-01-25T02:02:42.360Z,-0.60
2019-01-25T02:05:10.792Z,-0.60
2019-01-25T02:07:39.246Z,-0.60
2019-01-25T02:10:11.101Z,-0.50
2019-01-25T02:12:39.848Z,-0.50
2019-01-25T02:15:10.939Z,-0.40
2019-01-25T02:17:39.375Z,-0.40
2019-01-25T02:20:11.099Z,-0.40
2019-01-25T02:22:39.916Z,-0.40
2019-01-25T02:25:08.374Z,-0.40
2019-01-25T02:27:36.800Z,-0.30
2019-01-25T02:30:11.222Z,-0.30
2019-01-25T02:32:40.051Z,-0.30
2019-01-25T02:35:09.119Z,-0.30
2019-01-25T02:37:37.932Z,-0.30
2019-01-25T02:40:09.505Z,-0.30
2019-01-25T02:42:37.934Z,-0.30
2019-01-25T02:45:09.415Z,-0.20
2019-01-25T02:47:38.189Z,-0.20
2019-01-25T02:50:09.896Z,-0.10
2019-01-25T02:52:38.335Z,0.10
2019-01-25T02:55:08.729Z,0.40
2019-01-25T02:57:37.129Z,0.50
2019-01-25T03:00:11.821Z,0.60
2019-01-25T03:02:40.180Z,0.70
2019-01-25T03:05:09.457Z,0.80
2019-01-25T03:07:37.880Z,0.80
2019-01-25T03:10:12.590Z,0.80
2019-01-25T03:12:41.025Z,0.80
2019-01-25T03:15:17.227Z,0.90
2019-01-25T03:17:45.670Z,0.80
2019-01-25T03:20:16.590Z,0.90
2019-01-25T03:22:44.983Z,0.90
2019-01-25T03:25:16.009Z,0.90
2019-01-25T03:27:44.416Z,0.90
2019-01-25T03:30:18.456Z,0.90
2019-01-25T03:32:47.097Z,1.00
2019-01-25T03:35:17.131Z,1.00
2019-01-25T03:37:45.622Z,1.00
2019-01-25T03:40:24.953Z,1.00
2019-01-25T03:42:53.423Z,1.00
2019-01-25T03:45:21.836Z,1.10
2019-01-25T03:47:50.258Z,1.10
2019-01-25T03:50:21.237Z,1.10
2019-01-25T03:52:49.670Z,1.10
2019-01-25T03:55:18.131Z,1.10
2019-01-25T03:57:46.526Z,1.00
2019-01-25T04:00:20.752Z,1.00
2019-01-25T04:02:49.208Z,1.10
2019-01-25T04:05:18.119Z,1.10
2019-01-25T04:07:47.225Z,1.10
2019-01-25T04:10:20.563Z,1.10
2019-01-25T04:12:48.934Z,1.10
2019-01-25T04:15:22.331Z,1.10
2019-01-25T04:17:50.826Z,1.00
2019-01-25T04:20:21.511Z,1.10
2019-01-25T04:22:49.914Z,1.10
2019-01-25T04:25:20.288Z,1.10
2019-01-25T04:27:48.788Z,1.10
2019-01-25T04:30:20.007Z,1.10
2019-01-25T04:32:48.778Z,1.10
2019-01-25T04:35:17.198Z,1.10
2019-01-25T04:37:45.646Z,1.10
2019-01-25T04:40:16.031Z,1.10
2019-01-25T04:42:44.409Z,1.10
2019-01-25T04:45:17.839Z,1.10
2019-01-25T04:47:46.328Z,1.20
2019-01-25T04:50:19.729Z,1.20
2019-01-25T04:52:48.202Z,1.20
2019-01-25T04:55:28.248Z,1.20
2019-01-25T04:58:14.676Z,1.20
2019-01-25T05:00:43.431Z,1.10
2019-01-25T05:03:11.867Z,1.10
2019-01-25T05:05:40.230Z,1.10
2019-01-25T05:08:19.066Z,1.10
2019-01-25T05:10:47.363Z,1.10
2019-01-25T05:13:15.743Z,1.20
2019-01-25T05:15:44.166Z,1.20
2019-01-25T05:18:12.559Z,1.10
2019-01-25T05:20:40.923Z,1.10
2019-01-25T05:23:09.891Z,1.10
2019-01-25T05:25:38.309Z,1.10
2019-01-25T05:28:09.880Z,1.10
2019-01-25T05:30:38.391Z,1.10
2019-01-25T05:33:06.780Z,1.10
2019-01-25T05:35:36.866Z,1.20
2019-01-25T05:38:05.158Z,1.10
2019-01-25T05:40:33.547Z,1.10
2019-01-25T05:43:01.921Z,1.00
2019-01-25T05:45:30.321Z,1.00
2019-01-25T05:47:58.722Z,1.00
2019-01-25T05:50:27.109Z,1.00
2019-01-25T05:52:55.485Z,1.00
2019-01-25T05:55:24.125Z,1.10
2019-01-25T05:57:57.315Z,1.10
2019-01-25T06:00:29.830Z,1.20
2019-01-25T06:03:02.772Z,1.20
2019-01-25T06:05:31.117Z,1.20
2019-01-25T06:07:59.839Z,1.10
2019-01-25T06:10:31.471Z,1.10
2019-01-25T06:12:59.825Z,1.20
2019-01-25T06:15:29.075Z,1.10
2019-01-25T06:18:03.049Z,1.20
2019-01-25T06:20:31.441Z,1.20
2019-01-25T06:22:59.848Z,1.30
2019-01-25T06:25:28.215Z,1.30
2019-01-25T06:27:57.464Z,1.30
2019-01-25T06:30:25.860Z,1.30
2019-01-25T06:32:54.249Z,1.30
2019-01-25T06:35:22.578Z,1.40
2019-01-25T06:37:50.918Z,1.40
2019-01-25T06:40:19.312Z,1.30
2019-01-25T06:42:47.626Z,1.40
2019-01-25T06:45:16.307Z,1.40
2019-01-25T06:47:44.717Z,1.40
2019-01-25T06:50:13.882Z,1.40
2019-01-25T06:52:42.294Z,1.40
2019-01-25T06:55:10.673Z,1.40
2019-01-25T06:57:43.651Z,1.40
2019-01-25T07:00:18.740Z,1.50
2019-01-25T07:02:47.093Z,1.50
2019-01-25T07:05:15.493Z,1.60
2019-01-25T07:07:45.707Z,1.60
2019-01-25T07:10:17.110Z,1.50
2019-01-25T07:12:45.461Z,1.50
2019-01-25T07:15:15.451Z,1.50
2019-01-25T07:17:43.863Z,1.50
2019-01-25T07:20:17.072Z,1.50
2019-01-25T07:22:45.479Z,1.50
2019-01-25T07:25:15.615Z,1.40
2019-01-25T07:27:43.986Z,1.40
2019-01-25T07:30:14.537Z,1.40
2019-01-25T07:32:42.875Z,1.40
2019-01-25T07:35:11.301Z,1.50
2019-01-25T07:37:39.643Z,1.50
2019-01-25T07:40:09.633Z,1.50
2019-01-25T07:42:38.026Z,1.50
2019-01-25T07:45:12.584Z,1.40
2019-01-25T07:47:41.016Z,1.40
2019-01-25T07:50:12.730Z,1.30
2019-01-25T07:52:41.115Z,1.40
2019-01-25T07:55:11.229Z,1.40
2019-01-25T07:57:39.665Z,1.50
2019-01-25T08:00:13.523Z,1.70
2019-01-25T08:02:41.883Z,1.70
2019-01-25T08:05:10.730Z,1.70
2019-01-25T08:07:39.319Z,1.70
2019-01-25T08:10:16.166Z,1.70
2019-01-25T08:12:44.543Z,1.70
2019-01-25T08:15:19.385Z,1.70
2019-01-25T08:17:47.790Z,1.80
2019-01-25T08:20:16.199Z,1.70
2019-01-25T08:22:44.904Z,1.70
2019-01-25T08:25:13.301Z,1.60
2019-01-25T08:27:41.687Z,1.50
2019-01-25T08:30:13.374Z,1.50
2019-01-25T08:32:41.719Z,1.60
2019-01-25T08:35:11.344Z,1.50
2019-01-25T08:37:39.999Z,1.50
2019-01-25T08:40:16.107Z,1.70
2019-01-25T08:42:44.677Z,1.70
2019-01-25T08:45:14.721Z,1.80
2019-01-25T08:47:43.252Z,1.70
2019-01-25T08:50:22.621Z,1.70
2019-01-25T08:52:51.010Z,1.70
2019-01-25T08:55:21.317Z,1.80
2019-01-25T08:57:49.385Z,1.80
2019-01-25T09:00:20.566Z,1.80
2019-01-25T09:02:48.833Z,1.90
2019-01-25T09:05:17.889Z,1.90
2019-01-25T09:07:46.273Z,2.00
2019-01-25T09:10:19.621Z,2.00
2019-01-25T09:12:48.080Z,2.00
2019-01-25T09:15:22.652Z,2.00
2019-01-25T09:17:51.306Z,2.00
2019-01-25T09:20:23.214Z,2.00
2019-01-25T09:22:51.883Z,2.00
2019-01-25T09:25:20.313Z,2.20
2019-01-25T09:27:48.619Z,2.30
2019-01-25T09:30:22.201Z,2.40
2019-01-25T09:32:50.899Z,2.40
2019-01-25T09:35:19.364Z,2.40
2019-01-25T09:37:48.981Z,2.50
2019-01-25T09:40:21.703Z,2.60
2019-01-25T09:42:50.659Z,2.60
2019-01-25T09:45:19.099Z,2.70
2019-01-25T09:47:47.563Z,2.70
2019-01-25T09:50:20.855Z,2.80
2019-01-25T09:52:49.230Z,2.90
2019-01-25T09:55:20.454Z,3.20
2019-01-25T09:57:48.894Z,3.20
2019-01-25T10:00:29.014Z,3.10
2019-01-25T10:02:57.344Z,3.00
2019-01-25T10:05:25.727Z,2.80
2019-01-25T10:07:54.132Z,2.70
2019-01-25T10:10:22.858Z,2.50
2019-01-25T10:12:51.265Z,2.60
2019-01-25T10:15:25.430Z,2.60
2019-01-25T10:17:53.820Z,2.70
2019-01-25T10:20:22.201Z,2.80
2019-01-25T10:22:50.573Z,2.90
2019-01-25T10:25:18.974Z,3.00
2019-01-25T10:27:47.382Z,3.00
2019-01-25T10:30:29.147Z,3.00
2019-01-25T10:32:57.530Z,3.00
2019-01-25T10:35:25.917Z,3.00
2019-01-25T10:37:54.341Z,3.10
2019-01-25T10:40:23.547Z,3.10
2019-01-25T10:42:53.433Z,3.20
2019-01-25T10:45:33.465Z,3.20
2019-01-25T10:48:01.857Z,3.10
2019-01-25T10:50:30.191Z,3.00
2019-01-25T10:52:58.560Z,3.00
2019-01-25T10:55:26.882Z,3.00
2019-01-25T10:57:55.258Z,2.90
2019-01-25T11:00:23.601Z,2.80
2019-01-25T11:02:57.921Z,2.70
2019-01-25T11:05:27.970Z,2.70
2019-01-25T11:07:56.339Z,2.70
2019-01-25T11:10:24.640Z,2.70
2019-01-25T11:13:00.532Z,2.70
2019-01-25T11:15:24.127Z,2.70
2019-01-25T11:17:52.567Z,2.70
2019-01-25T11:20:23.928Z,2.80
2019-01-25T11:22:52.751Z,2.70
2019-01-25T11:25:29.947Z,2.70
2019-01-25T11:27:58.316Z,2.70
2019-01-25T11:30:26.726Z,2.80
2019-01-25T11:32:55.111Z,3.00
2019-01-25T11:35:23.423Z,3.10
2019-01-25T11:37:51.823Z,3.00
2019-01-25T11:40:23.455Z,2.90
2019-01-25T11:42:51.846Z,2.90
2019-01-25T11:45:20.252Z,2.80
2019-01-25T11:47:48.626Z,2.90
2019-01-25T11:50:18.974Z,2.90
2019-01-25T11:52:47.429Z,2.90
2019-01-25T11:55:17.595Z,2.90
2019-01-25T11:57:46.006Z,3.00
2019-01-25T12:00:31.730Z,3.10
2019-01-25T12:03:00.080Z,3.10
2019-01-25T12:05:28.379Z,3.00
2019-01-25T12:07:56.789Z,3.00
2019-01-25T12:10:30.822Z,3.00
2019-01-25T12:12:59.210Z,3.00
2019-01-25T12:15:27.602Z,3.00
2019-01-25T12:17:55.992Z,2.90
2019-01-25T12:20:26.638Z,2.90
2019-01-25T12:22:54.932Z,3.00
2019-01-25T12:25:23.245Z,3.00
2019-01-25T12:27:51.627Z,3.00
2019-01-25T12:30:28.491Z,3.00
2019-01-25T12:32:56.884Z,3.10
2019-01-25T12:35:26.899Z,3.30
2019-01-25T12:37:55.267Z,3.30
2019-01-25T12:40:23.964Z,3.20
2019-01-25T12:42:52.321Z,3.10
2019-01-25T12:45:23.530Z,3.10
2019-01-25T12:47:51.914Z,3.10
2019-01-25T12:50:35.022Z,3.10
2019-01-25T12:53:05.730Z,3.00
2019-01-25T12:55:34.474Z,3.10
2019-01-25T12:58:02.863Z,3.00
2019-01-25T13:00:31.136Z,3.00
2019-01-25T13:02:59.481Z,3.00
2019-01-25T13:05:28.669Z,3.00
2019-01-25T13:07:57.083Z,3.20
2019-01-25T13:10:26.910Z,3.20
2019-01-25T13:12:55.297Z,3.20
2019-01-25T13:15:23.696Z,3.20
2019-01-25T13:17:52.066Z,3.20
2019-01-25T13:20:28.975Z,3.20
2019-01-25T13:22:57.343Z,3.10
2019-01-25T13:25:25.734Z,3.20
2019-01-25T13:27:54.149Z,3.10
2019-01-25T13:30:25.522Z,3.10
2019-01-25T13:32:53.897Z,3.00
2019-01-25T13:35:22.306Z,3.00
2019-01-25T13:37:50.685Z,3.00
2019-01-25T13:40:22.362Z,3.00
2019-01-25T13:42:50.818Z,3.00
2019-01-25T13:45:20.342Z,3.00
2019-01-25T13:47:48.755Z,2.90
2019-01-25T13:50:25.774Z,2.90
2019-01-25T13:52:54.132Z,2.90
2019-01-25T13:55:22.500Z,2.90
2019-01-25T13:57:50.884Z,2.80
2019-01-25T14:00:25.149Z,2.80
2019-01-25T14:02:53.561Z,2.80
2019-01-25T14:05:21.920Z,2.80
2019-01-25T14:07:50.299Z,2.70
2019-01-25T14:10:24.097Z,2.70
2019-01-25T14:12:52.460Z,2.70
2019-01-25T14:15:20.772Z,2.70
2019-01-25T14:17:49.156Z,2.60
2019-01-25T14:20:23.368Z,2.60
2019-01-25T14:22:50.000Z,2.60
2019-01-25T14:25:18.382Z,2.50
2019-01-25T14:27:46.764Z,2.50
2019-01-25T14:30:33.344Z,2.50
2019-01-25T14:33:01.726Z,2.50
2019-01-25T14:35:30.137Z,2.50
2019-01-25T14:37:58.502Z,2.50
2019-01-25T14:40:26.902Z,2.50
2019-01-25T14:42:55.270Z,2.50
2019-01-25T14:45:23.578Z,2.50
2019-01-25T14:47:51.980Z,2.60
2019-01-25T14:50:28.737Z,2.60
2019-01-25T14:52:57.129Z,2.50
2019-01-25T14:55:25.509Z,2.50
2019-01-25T14:57:53.854Z,2.50
2019-01-25T15:00:22.226Z,2.50
2019-01-25T15:02:50.602Z,2.60
2019-01-25T15:05:20.034Z,2.60
2019-01-25T15:07:48.298Z,2.50
2019-01-25T15:10:18.585Z,2.50
2019-01-25T15:12:47.416Z,2.50
2019-01-25T15:15:15.790Z,2.50
2019-01-25T15:17:44.202Z,2.50
2019-01-25T15:20:18.555Z,2.50
2019-01-25T15:22:46.960Z,2.50
2019-01-25T15:25:15.318Z,2.50
2019-01-25T15:27:43.653Z,2.50
2019-01-25T15:30:21.075Z,2.50
2019-01-25T15:32:49.437Z,2.50
2019-01-25T15:35:19.484Z,2.50
2019-01-25T15:37:47.750Z,2.60
2019-01-25T15:40:17.944Z,2.70
2019-01-25T15:42:46.281Z,2.70
2019-01-25T15:45:17.119Z,2.70
2019-01-25T15:47:45.605Z,2.70
2019-01-25T15:50:22.411Z,2.70
2019-01-25T15:52:51.274Z,2.70
2019-01-25T15:55:19.889Z,2.70
2019-01-25T15:57:48.323Z,2.70
2019-01-25T16:00:21.815Z,2.80
2019-01-25T16:02:50.192Z,2.80
2019-01-25T16:05:19.689Z,2.80
2019-01-25T16:07:49.756Z,2.80
2019-01-25T16:10:20.052Z,2.80
2019-01-25T16:12:48.705Z,2.90
2019-01-25T16:15:19.062Z,2.90
2019-01-25T16:17:47.533Z,2.90
2019-01-25T16:20:18.207Z,2.90
2019-01-25T16:22:47.513Z,2.90
2019-01-25T16:25:21.371Z,3.00
2019-01-25T16:27:49.699Z,3.00
2019-01-25T16:30:20.918Z,3.00
2019-01-25T16:32:49.307Z,2.90
2019-01-25T16:35:17.669Z,3.00
2019-01-25T16:37:46.064Z,3.00
2019-01-25T16:40:16.500Z,3.00
2019-01-25T16:42:44.903Z,3.00
2019-01-25T16:45:28.307Z,3.00
2019-01-25T16:47:56.709Z,3.00
2019-01-25T16:50:25.060Z,3.00
2019-01-25T16:52:53.443Z,3.00
2019-01-25T16:55:21.815Z,3.00
2019-01-25T16:57:50.153Z,3.00
2019-01-25T17:00:33.026Z,3.00
2019-01-25T17:03:01.332Z,3.00
2019-01-25T17:05:29.689Z,3.00
2019-01-25T17:07:58.101Z,3.00
2019-01-25T17:10:26.468Z,3.00
2019-01-25T17:12:54.874Z,3.00
2019-01-25T17:15:23.589Z,3.00
2019-01-25T17:17:51.929Z,3.00
2019-01-25T17:20:25.808Z,3.00
2019-01-25T17:22:54.197Z,3.00
2019-01-25T17:25:22.929Z,3.00
2019-01-25T17:27:51.310Z,3.00
2019-01-25T17:30:28.065Z,3.00
2019-01-25T17:32:58.211Z,3.10
2019-01-25T17:35:26.596Z,3.10
2019-01-25T17:37:54.993Z,3.10
2019-01-25T17:40:26.116Z,3.10
2019-01-25T17:42:54.531Z,3.20
2019-01-25T17:45:22.912Z,3.20
2019-01-25T17:47:51.281Z,3.20
2019-01-25T17:50:19.667Z,3.20
2019-01-25T17:52:48.032Z,3.30
2019-01-25T17:55:17.650Z,3.30
2019-01-25T17:57:45.987Z,3.30
2019-01-25T18:00:22.125Z,3.30
2019-01-25T18:02:50.505Z,3.30
2019-01-25T18:05:18.885Z,3.30
2019-01-25T18:07:47.288Z,3.30
2019-01-25T18:10:18.071Z,3.40
2019-01-25T18:12:46.478Z,3.40
2019-01-25T18:15:16.492Z,3.40
2019-01-25T18:17:44.803Z,3.50
2019-01-25T18:20:21.697Z,3.50
2019-01-25T18:22:50.438Z,3.50
2019-01-25T18:25:28.150Z,3.50
2019-01-25T18:27:59.615Z,3.60
2019-01-25T18:30:34.168Z,3.60
2019-01-25T18:33:02.471Z,3.60
2019-01-25T18:35:30.847Z,3.70
2019-01-25T18:37:59.247Z,3.70
2019-01-25T18:40:27.921Z,3.70
2019-01-25T18:42:56.699Z,3.80
2019-01-25T18:45:25.003Z,3.80
2019-01-25T18:47:53.401Z,3.80
2019-01-25T18:50:21.821Z,3.80
2019-01-25T18:52:50.202Z,3.80
2019-01-25T18:55:21.711Z,3.80
2019-01-25T18:57:50.095Z,3.90
2019-01-25T19:00:20.206Z,3.90
2019-01-25T19:02:48.578Z,3.90
2019-01-25T19:05:16.992Z,3.90
2019-01-25T19:07:45.445Z,4.00
2019-01-25T19:10:22.141Z,4.00
2019-01-25T19:12:50.473Z,4.00
2019-01-25T19:15:30.092Z,4.00
2019-01-25T19:17:58.458Z,4.10
2019-01-25T19:20:26.797Z,4.10
2019-01-25T19:22:55.117Z,4.10
2019-01-25T19:25:23.442Z,4.10
2019-01-25T19:27:51.830Z,4.10
2019-01-25T19:30:25.837Z,4.20
2019-01-25T19:32:54.236Z,4.20
2019-01-25T19:35:22.606Z,4.20
2019-01-25T19:37:51.049Z,4.30
2019-01-25T19:40:25.263Z,4.30
2019-01-25T19:42:53.685Z,4.30
2019-01-25T19:45:22.465Z,4.30
2019-01-25T19:47:50.876Z,4.30
2019-01-25T19:50:22.292Z,4.30
2019-01-25T19:52:50.675Z,4.30
2019-01-25T19:55:27.261Z,4.40
2019-01-25T19:57:55.964Z,4.40
2019-01-25T20:00:27.608Z,4.40
2019-01-25T20:02:56.046Z,4.40
2019-01-25T20:05:26.871Z,4.50
2019-01-25T20:07:55.252Z,4.50
2019-01-25T20:10:23.640Z,4.50
2019-01-25T20:12:52.346Z,4.50
2019-01-25T20:15:22.596Z,4.60
2019-01-25T20:17:50.965Z,4.60
2019-01-25T20:20:24.671Z,4.60
2019-01-25T20:22:53.124Z,4.60
2019-01-25T20:25:21.495Z,4.70
2019-01-25T20:27:49.877Z,4.70
2019-01-25T20:30:26.665Z,4.70
2019-01-25T20:32:55.066Z,4.80
2019-01-25T20:35:25.987Z,4.80
2019-01-25T20:37:54.526Z,4.80
2019-01-25T20:40:22.967Z,4.90
2019-01-25T20:42:51.355Z,4.90
2019-01-25T20:45:31.971Z,4.90
2019-01-25T20:48:00.332Z,4.90
2019-01-25T20:50:31.499Z,4.90
2019-01-25T20:53:00.091Z,4.90
2019-01-25T20:55:28.461Z,4.90
2019-01-25T20:57:57.735Z,4.90
2019-01-25T21:00:31.290Z,4.90
2019-01-25T21:02:59.754Z,5.00
2019-01-25T21:05:28.152Z,4.90
2019-01-25T21:07:58.046Z,5.00
2019-01-25T21:10:27.917Z,5.00
2019-01-25T21:12:56.351Z,5.00
2019-01-25T21:15:34.760Z,5.00
2019-01-25T21:17:57.583Z,5.00
2019-01-25T21:20:31.703Z,5.00
2019-01-25T21:23:00.144Z,5.00
2019-01-25T21:25:47.951Z,5.10
2019-01-25T21:28:19.234Z,5.10
2019-01-25T21:30:47.634Z,5.10
2019-01-25T21:33:16.191Z,5.10
2019-01-25T21:35:44.639Z,5.20
2019-01-25T21:38:13.030Z,5.20
2019-01-25T21:40:41.379Z,5.20
2019-01-25T21:43:09.686Z,5.20
2019-01-25T21:45:42.936Z,5.20
2019-01-25T21:48:08.626Z,5.20
2019-01-25T21:50:40.569Z,5.20
2019-01-25T21:53:08.952Z,5.20
2019-01-25T21:55:37.348Z,5.20
2019-01-25T21:58:05.840Z,5.20
2019-01-25T22:00:35.526Z,5.20
2019-01-25T22:03:04.274Z,5.20
2019-01-25T22:05:32.603Z,5.30
2019-01-25T22:08:00.944Z,5.20
2019-01-25T22:10:37.731Z,5.30
2019-01-25T22:13:06.063Z,5.30
2019-01-25T22:15:34.716Z,5.30
2019-01-25T22:18:03.213Z,5.30
2019-01-25T22:20:31.522Z,5.30
2019-01-25T22:22:59.858Z,5.30
2019-01-25T22:25:28.208Z,5.30
2019-01-25T22:27:57.154Z,5.30
2019-01-25T22:30:27.492Z,5.30
2019-01-25T22:32:55.863Z,5.40
2019-01-25T22:35:24.327Z,5.40
2019-01-25T22:37:53.237Z,5.40
2019-01-25T22:40:24.394Z,5.40
2019-01-25T22:42:52.833Z,5.50
2019-01-25T22:45:23.623Z,5.50
2019-01-25T22:47:52.001Z,5.50
2019-01-25T22:50:23.083Z,5.50
2019-01-25T22:52:51.504Z,5.50
2019-01-25T22:55:21.229Z,5.50
2019-01-25T22:57:49.663Z,5.50
2019-01-25T23:00:22.720Z,5.50
2019-01-25T23:02:51.076Z,5.50
2019-01-25T23:05:37.588Z,5.50
2019-01-25T23:08:06.180Z,5.50
2019-01-25T23:10:34.631Z,5.50
2019-01-25T23:13:03.017Z,5.50
2019-01-25T23:15:31.404Z,5.50
2019-01-25T23:17:59.794Z,5.50
2019-01-25T23:20:28.121Z,5.50
2019-01-25T23:22:56.485Z,5.50
2019-01-25T23:25:24.803Z,5.50
2019-01-25T23:27:53.335Z,5.50
2019-01-25T23:30:21.768Z,5.50
2019-01-25T23:32:50.074Z,5.50
2019-01-25T23:35:18.431Z,5.50
2019-01-25T23:37:46.743Z,5.60
2019-01-25T23:40:15.367Z,5.60
2019-01-25T23:42:43.761Z,5.60
2019-01-25T23:45:12.200Z,5.60
2019-01-25T23:47:40.527Z,5.60
2019-01-25T23:50:09.463Z,5.60
2019-01-25T23:52:37.827Z,5.60
2019-01-25T23:55:07.192Z,5.60
2019-01-25T23:57:35.558Z,5.60
